createdAt,value
2018-04-17T00:00:10.387Z,7.30
2018-04-17T00:02:38.407Z,6.37
2018-04-17T00:05:06.419Z,7.00
2018-04-17T00:07:34.448Z,7.37
2018-04-17T00:10:02.493Z,6.60
2018-04-17T00:12:30.446Z,6.83
2018-04-17T00:14:58.474Z,7.47
2018-04-17T00:17:26.497Z,6.87
2018-04-17T00:19:54.518Z,7.10
2018-04-17T00:22:22.601Z,6.50
2018-04-17T00:24:50.553Z,6.43
2018-04-17T00:27:18.536Z,7.80
2018-04-17T00:29:46.545Z,6.07
2018-04-17T00:32:14.508Z,6.57
2018-04-17T00:34:42.486Z,6.93
2018-04-17T00:37:10.502Z,7.00
2018-04-17T00:39:38.432Z,6.03
2018-04-17T00:42:06.553Z,8.07
2018-04-17T00:44:34.738Z,6.40
2018-04-17T00:47:02.700Z,7.73
2018-04-17T00:49:30.688Z,5.80
2018-04-17T00:51:58.669Z,6.90
2018-04-17T00:54:26.715Z,7.30
2018-04-17T00:56:54.664Z,7.50
2018-04-17T00:59:22.750Z,6.60
2018-04-17T01:01:50.768Z,6.77
2018-04-17T01:04:18.833Z,7.87
2018-04-17T01:06:46.866Z,6.20
2018-04-17T01:09:14.925Z,7.53
2018-04-17T01:11:42.976Z,6.33
2018-04-17T01:14:10.964Z,6.67
2018-04-17T01:16:39.000Z,8.10
2018-04-17T01:19:07.135Z,7.53
2018-04-17T01:21:35.128Z,6.33
2018-04-17T01:24:03.114Z,7.80
2018-04-17T01:26:31.242Z,7.40
2018-04-17T01:28:59.189Z,7.90
2018-04-17T01:31:27.179Z,7.77
2018-04-17T01:33:55.274Z,6.70
2018-04-17T01:36:23.284Z,5.70
2018-04-17T01:38:51.293Z,5.20
2018-04-17T01:41:19.358Z,6.67
2018-04-17T01:43:47.323Z,6.90
2018-04-17T01:46:15.585Z,6.67
2018-04-17T01:48:43.631Z,6.57
2018-04-17T01:51:11.630Z,6.77
2018-04-17T01:53:39.675Z,6.03
2018-04-17T01:56:07.744Z,6.87
2018-04-17T01:58:35.771Z,6.47
2018-04-17T02:01:03.808Z,4.67
2018-04-17T02:03:31.898Z,4.50
2018-04-17T02:05:59.914Z,6.10
2018-04-17T02:08:27.934Z,5.40
2018-04-17T02:10:55.907Z,5.33
2018-04-17T02:13:23.908Z,5.27
2018-04-17T02:15:51.900Z,6.27
2018-04-17T02:18:19.904Z,5.83
2018-04-17T02:20:47.960Z,4.63
2018-04-17T02:23:15.953Z,5.50
2018-04-17T02:25:43.934Z,8.03
2018-04-17T02:28:12.015Z,7.67
2018-04-17T02:30:40.042Z,6.93
2018-04-17T02:33:08.088Z,5.17
2018-04-17T02:35:36.066Z,5.77
2018-04-17T02:38:04.094Z,6.73
2018-04-17T02:40:32.052Z,5.90
2018-04-17T02:43:00.066Z,7.10
2018-04-17T02:45:28.138Z,5.60
2018-04-17T02:47:56.641Z,4.90
2018-04-17T02:50:24.624Z,6.67
2018-04-17T02:52:52.613Z,4.73
2018-04-17T02:55:21.123Z,4.50
2018-04-17T02:57:49.155Z,6.63
2018-04-17T03:00:17.138Z,5.03
2018-04-17T03:02:45.128Z,5.53
2018-04-17T03:05:13.136Z,4.33
2018-04-17T03:07:41.127Z,6.10
2018-04-17T03:10:09.167Z,6.03
2018-04-17T03:12:37.259Z,5.50
2018-04-17T03:15:05.254Z,5.47
2018-04-17T03:17:33.269Z,6.17
2018-04-17T03:20:01.234Z,5.03
2018-04-17T03:22:29.274Z,5.07
2018-04-17T03:24:57.362Z,5.13
2018-04-17T03:27:25.504Z,6.33
2018-04-17T03:29:53.461Z,6.20
2018-04-17T03:32:21.482Z,5.90
2018-04-17T03:34:49.523Z,4.70
2018-04-17T03:37:17.511Z,6.33
2018-04-17T03:39:46.635Z,6.20
2018-04-17T03:42:14.579Z,11.07
2018-04-17T03:44:42.590Z,7.13
2018-04-17T03:47:10.632Z,8.70
2018-04-17T03:49:39.001Z,6.63
2018-04-17T03:52:07.048Z,9.33
2018-04-17T03:54:35.050Z,9.50
2018-04-17T03:57:03.047Z,7.63
2018-04-17T03:59:31.058Z,8.17
2018-04-17T04:01:59.043Z,8.33
2018-04-17T04:04:27.086Z,7.53
2018-04-17T04:06:55.081Z,7.40
2018-04-17T04:09:23.077Z,8.97
2018-04-17T04:11:51.125Z,8.30
2018-04-17T04:14:19.123Z,7.67
2018-04-17T04:16:58.862Z,9.30
2018-04-17T04:19:38.757Z,9.07
2018-04-17T04:22:18.552Z,7.63
2018-04-17T04:24:58.572Z,7.47
2018-04-17T04:27:26.725Z,7.37
2018-04-17T04:29:54.748Z,8.23
2018-04-17T04:32:23.429Z,7.97
2018-04-17T04:34:51.438Z,9.90
2018-04-17T04:37:19.473Z,8.53
2018-04-17T04:39:47.503Z,10.33
2018-04-17T04:42:15.734Z,8.83
2018-04-17T04:44:43.692Z,10.63
2018-04-17T04:47:11.734Z,11.70
2018-04-17T04:49:40.256Z,11.20
2018-04-17T04:52:08.293Z,10.87
2018-04-17T04:54:36.324Z,11.13
2018-04-17T04:57:04.342Z,13.77
2018-04-17T04:59:32.345Z,13.00
2018-04-17T05:02:00.362Z,12.53
2018-04-17T05:04:28.387Z,11.20
2018-04-17T05:06:56.372Z,13.20
2018-04-17T05:09:24.471Z,11.63
2018-04-17T05:11:52.474Z,10.97
2018-04-17T05:14:20.536Z,11.40
2018-04-17T05:16:48.798Z,9.60
2018-04-17T05:19:16.751Z,8.67
2018-04-17T05:21:44.751Z,9.60
2018-04-17T05:24:12.873Z,9.73
2018-04-17T05:26:40.834Z,9.43
2018-04-17T05:29:08.860Z,8.97
2018-04-17T05:31:36.962Z,9.57
2018-04-17T05:34:04.958Z,8.57
2018-04-17T05:36:32.982Z,10.37
2018-04-17T05:39:00.919Z,10.07
2018-04-17T05:41:29.057Z,10.43
2018-04-17T05:43:57.090Z,9.67
2018-04-17T05:46:25.171Z,8.80
2018-04-17T05:48:53.098Z,9.10
2018-04-17T05:51:21.498Z,8.40
2018-04-17T05:53:49.562Z,11.63
2018-04-17T05:56:17.688Z,12.13
2018-04-17T05:58:45.810Z,12.60
2018-04-17T06:01:13.865Z,14.70
2018-04-17T06:03:41.885Z,14.20
2018-04-17T06:06:09.851Z,10.73
2018-04-17T06:08:37.855Z,10.53
2018-04-17T06:11:05.845Z,9.73
2018-04-17T06:13:33.889Z,12.97
2018-04-17T06:16:01.902Z,13.10
2018-04-17T06:18:29.865Z,17.87
2018-04-17T06:20:57.891Z,25.33
2018-04-17T06:23:25.894Z,16.80
2018-04-17T06:25:53.890Z,14.03
2018-04-17T06:28:21.897Z,27.13
2018-04-17T06:30:49.895Z,18.00
2018-04-17T06:33:17.909Z,13.90
2018-04-17T06:35:45.898Z,11.47
2018-04-17T06:38:13.945Z,11.83
2018-04-17T06:40:41.978Z,12.40
2018-04-17T06:43:09.974Z,13.97
2018-04-17T06:45:37.975Z,15.13
2018-04-17T06:48:06.005Z,10.40
2018-04-17T06:50:34.040Z,10.87
2018-04-17T06:53:02.367Z,9.43
2018-04-17T06:55:30.303Z,10.97
2018-04-17T06:57:58.396Z,9.90
2018-04-17T07:00:26.394Z,10.93
2018-04-17T07:02:54.399Z,9.83
2018-04-17T07:05:22.474Z,9.53
2018-04-17T07:07:50.451Z,9.17
2018-04-17T07:10:18.497Z,8.87
2018-04-17T07:12:46.546Z,7.83
2018-04-17T07:15:14.519Z,9.07
2018-04-17T07:17:42.535Z,7.63
2018-04-17T07:20:10.555Z,10.63
2018-04-17T07:22:38.545Z,11.97
2018-04-17T07:25:06.523Z,11.40
2018-04-17T07:27:34.552Z,10.77
2018-04-17T07:30:02.591Z,8.80
2018-04-17T07:32:30.632Z,7.33
2018-04-17T07:34:58.722Z,8.40
2018-04-17T07:37:26.697Z,12.80
2018-04-17T07:39:54.714Z,11.40
2018-04-17T07:42:22.786Z,12.00
2018-04-17T07:44:50.786Z,12.10
2018-04-17T07:47:31.747Z,12.43
2018-04-17T07:50:00.703Z,19.77
2018-04-17T07:52:28.803Z,12.43
2018-04-17T07:54:57.303Z,15.00
2018-04-17T07:57:25.359Z,11.53
2018-04-17T07:59:53.315Z,9.60
2018-04-17T08:02:21.320Z,9.27
2018-04-17T08:04:49.452Z,9.43
2018-04-17T08:07:17.479Z,9.57
2018-04-17T08:09:45.510Z,9.90
2018-04-17T08:12:13.467Z,15.80
2018-04-17T08:14:41.532Z,12.93
2018-04-17T08:17:09.690Z,11.50
2018-04-17T08:19:37.754Z,9.80
2018-04-17T08:22:05.818Z,10.80
2018-04-17T08:24:33.866Z,11.17
2018-04-17T08:27:01.953Z,11.10
2018-04-17T08:29:29.968Z,8.97
2018-04-17T08:31:57.975Z,8.97
2018-04-17T08:34:25.983Z,9.67
2018-04-17T08:36:54.004Z,10.70
2018-04-17T08:39:22.028Z,11.43
2018-04-17T08:41:50.006Z,8.30
2018-04-17T08:44:17.995Z,9.00
2018-04-17T08:46:45.975Z,7.97
2018-04-17T08:49:13.936Z,8.67
2018-04-17T08:51:42.019Z,7.90
2018-04-17T08:54:10.071Z,9.00
2018-04-17T08:56:38.382Z,8.03
2018-04-17T08:59:06.371Z,9.03
2018-04-17T09:01:34.437Z,7.70
2018-04-17T09:04:02.468Z,9.53
2018-04-17T09:06:30.512Z,8.00
2018-04-17T09:08:58.651Z,6.40
2018-04-17T09:11:26.730Z,7.80
2018-04-17T09:13:54.744Z,7.77
2018-04-17T09:16:22.738Z,7.63
2018-04-17T09:18:50.844Z,5.60
2018-04-17T09:21:18.866Z,7.60
2018-04-17T09:23:46.898Z,7.17
2018-04-17T09:26:14.932Z,8.80
2018-04-17T09:28:42.962Z,7.20
2018-04-17T09:31:10.979Z,7.40
2018-04-17T09:33:38.987Z,6.13
2018-04-17T09:36:07.128Z,6.13
2018-04-17T09:38:35.102Z,7.27
2018-04-17T09:41:03.150Z,6.03
2018-04-17T09:43:31.206Z,7.07
2018-04-17T09:45:59.133Z,6.40
2018-04-17T09:48:27.107Z,7.50
2018-04-17T09:50:55.131Z,5.60
2018-04-17T09:53:23.154Z,6.30
2018-04-17T09:55:51.297Z,6.13
2018-04-17T09:58:19.633Z,4.90
2018-04-17T10:00:53.167Z,5.70
2018-04-17T10:03:21.221Z,5.37
2018-04-17T10:05:49.230Z,5.17
2018-04-17T10:08:17.292Z,6.47
2018-04-17T10:10:45.286Z,6.63
2018-04-17T10:13:13.341Z,4.57
2018-04-17T10:15:41.415Z,5.53
2018-04-17T10:18:09.421Z,5.20
2018-04-17T10:20:37.474Z,4.53
2018-04-17T10:23:05.491Z,4.90
2018-04-17T10:25:33.585Z,4.17
2018-04-17T10:28:01.574Z,4.43
2018-04-17T10:30:29.550Z,4.50
2018-04-17T10:32:57.926Z,5.10
2018-04-17T10:35:26.415Z,4.10
2018-04-17T10:37:54.469Z,5.00
2018-04-17T10:40:22.451Z,4.17
2018-04-17T10:42:50.415Z,4.30
2018-04-17T10:45:18.439Z,4.90
2018-04-17T10:47:46.423Z,4.63
2018-04-17T10:50:14.494Z,5.97
2018-04-17T10:52:42.517Z,5.43
2018-04-17T10:55:10.562Z,5.40
2018-04-17T10:57:38.595Z,5.27
2018-04-17T11:00:06.963Z,4.40
2018-04-17T11:02:35.009Z,4.50
2018-04-17T11:05:03.044Z,5.50
2018-04-17T11:07:31.126Z,4.00
2018-04-17T11:09:59.110Z,4.47
2018-04-17T11:12:27.118Z,3.03
2018-04-17T11:14:55.596Z,6.10
2018-04-17T11:17:24.019Z,4.27
2018-04-17T11:19:52.297Z,4.60
2018-04-17T11:22:20.880Z,5.90
2018-04-17T11:24:49.257Z,5.83
2018-04-17T11:27:18.205Z,5.00
2018-04-17T11:29:46.645Z,4.83
2018-04-17T11:32:15.102Z,4.10
2018-04-17T11:34:43.303Z,4.37
2018-04-17T11:37:11.856Z,4.87
2018-04-17T11:39:40.275Z,4.17
2018-04-17T11:42:08.636Z,4.53
2018-04-17T11:44:37.027Z,4.97
2018-04-17T11:47:05.374Z,3.93
2018-04-17T11:49:33.852Z,4.70
2018-04-17T11:52:02.171Z,4.40
2018-04-17T11:54:30.713Z,6.83
2018-04-17T11:56:59.194Z,4.63
2018-04-17T11:59:27.648Z,5.83
2018-04-17T12:01:56.581Z,6.30
2018-04-17T12:04:24.921Z,7.17
2018-04-17T12:06:53.020Z,5.77
2018-04-17T12:09:21.036Z,5.67
2018-04-17T12:11:49.033Z,7.47
2018-04-17T12:14:17.065Z,14.63
2018-04-17T12:16:45.052Z,10.63
2018-04-17T12:19:12.992Z,8.87
2018-04-17T12:21:41.024Z,6.43
2018-04-17T12:24:09.061Z,6.53
2018-04-17T12:26:37.091Z,8.17
2018-04-17T12:29:05.306Z,8.03
2018-04-17T12:31:33.408Z,7.33
2018-04-17T12:34:01.390Z,7.30
2018-04-17T12:36:29.411Z,8.60
2018-04-17T12:38:57.438Z,9.00
2018-04-17T12:41:25.474Z,9.00
2018-04-17T12:43:53.473Z,8.97
2018-04-17T12:46:21.445Z,10.10
2018-04-17T12:48:49.526Z,11.13
2018-04-17T12:51:17.569Z,7.57
2018-04-17T12:53:45.548Z,7.17
2018-04-17T12:56:13.604Z,6.67
2018-04-17T12:58:41.624Z,7.43
2018-04-17T13:01:09.649Z,8.20
2018-04-17T13:03:37.943Z,8.07
2018-04-17T13:06:05.978Z,9.03
2018-04-17T13:08:34.000Z,7.80
2018-04-17T13:11:02.024Z,8.23
2018-04-17T13:13:30.142Z,8.50
2018-04-17T13:15:58.150Z,9.87
2018-04-17T13:18:26.142Z,9.50
2018-04-17T13:20:54.194Z,8.97
2018-04-17T13:23:22.223Z,10.70
2018-04-17T13:25:50.292Z,9.67
2018-04-17T13:28:18.305Z,8.23
2018-04-17T13:30:46.342Z,8.57
2018-04-17T13:33:14.337Z,8.33
2018-04-17T13:35:42.368Z,13.27
2018-04-17T13:38:10.383Z,10.10
2018-04-17T13:40:38.385Z,8.63
2018-04-17T13:43:06.368Z,9.30
2018-04-17T13:45:34.387Z,12.20
2018-04-17T13:48:02.412Z,10.67
2018-04-17T13:50:30.395Z,12.63
2018-04-17T13:52:58.455Z,10.70
2018-04-17T13:55:26.423Z,13.10
2018-04-17T13:57:54.453Z,13.90
2018-04-17T14:00:22.441Z,9.93
2018-04-17T14:02:50.477Z,8.17
2018-04-17T14:05:18.854Z,7.93
2018-04-17T14:07:46.849Z,7.73
2018-04-17T14:10:14.882Z,5.13
2018-04-17T14:12:42.874Z,5.70
2018-04-17T14:15:10.934Z,6.30
2018-04-17T14:17:38.962Z,6.60
2018-04-17T14:20:07.037Z,7.33
2018-04-17T14:22:35.125Z,7.40
2018-04-17T14:25:03.149Z,7.23
2018-04-17T14:27:31.120Z,6.93
2018-04-17T14:29:59.200Z,8.53
2018-04-17T14:32:27.142Z,7.97
2018-04-17T14:34:55.214Z,6.70
2018-04-17T14:37:23.270Z,5.47
2018-04-17T14:39:51.221Z,7.70
2018-04-17T14:42:19.211Z,6.30
2018-04-17T14:44:47.240Z,6.33
2018-04-17T14:47:15.284Z,5.83
2018-04-17T14:49:43.397Z,5.00
2018-04-17T14:52:11.386Z,7.20
2018-04-17T14:54:39.366Z,7.10
2018-04-17T14:57:07.341Z,6.67
2018-04-17T14:59:35.391Z,7.57
2018-04-17T15:02:03.372Z,5.90
2018-04-17T15:04:31.393Z,8.50
2018-04-17T15:06:59.885Z,6.57
2018-04-17T15:09:27.865Z,6.90
2018-04-17T15:11:55.949Z,5.20
2018-04-17T15:14:23.930Z,4.50
2018-04-17T15:16:51.939Z,4.30
2018-04-17T15:19:19.976Z,9.23
2018-04-17T15:21:47.998Z,9.10
2018-04-17T15:24:16.086Z,8.77
2018-04-17T15:26:44.057Z,9.23
2018-04-17T15:29:12.049Z,7.50
2018-04-17T15:31:40.030Z,5.47
2018-04-17T15:34:08.059Z,3.83
2018-04-17T15:36:36.116Z,4.63
2018-04-17T15:39:04.291Z,4.23
2018-04-17T15:41:32.255Z,4.50
2018-04-17T15:44:00.213Z,4.87
2018-04-17T15:46:28.289Z,5.50
2018-04-17T15:48:56.255Z,8.37
2018-04-17T15:51:24.337Z,6.70
2018-04-17T15:53:52.400Z,6.63
2018-04-17T15:56:20.367Z,6.80
2018-04-17T15:58:48.323Z,6.30
2018-04-17T16:01:16.346Z,4.37
2018-04-17T16:03:44.354Z,5.20
2018-04-17T16:06:13.787Z,5.23
2018-04-17T16:08:42.573Z,4.73
2018-04-17T16:11:10.561Z,4.67
2018-04-17T16:13:38.567Z,4.10
2018-04-17T16:16:06.638Z,6.07
2018-04-17T16:18:34.631Z,5.90
2018-04-17T16:21:02.657Z,8.63
2018-04-17T16:23:30.728Z,7.30
2018-04-17T16:25:58.865Z,9.50
2018-04-17T16:28:26.954Z,10.13
2018-04-17T16:30:54.946Z,8.70
2018-04-17T16:33:23.002Z,8.30
2018-04-17T16:35:50.984Z,7.07
2018-04-17T16:38:19.026Z,7.17
2018-04-17T16:40:47.110Z,6.27
2018-04-17T16:43:15.131Z,6.23
2018-04-17T16:45:43.122Z,4.87
2018-04-17T16:48:11.184Z,6.40
2018-04-17T16:50:39.169Z,6.50
2018-04-17T16:53:07.328Z,9.63
2018-04-17T16:55:35.318Z,9.67
2018-04-17T16:58:03.302Z,10.40
2018-04-17T17:00:31.381Z,7.87
2018-04-17T17:02:59.418Z,8.63
2018-04-17T17:05:27.551Z,10.97
2018-04-17T17:07:55.663Z,9.00
2018-04-17T17:10:23.978Z,15.40
2018-04-17T17:12:52.043Z,8.70
2018-04-17T17:15:19.986Z,8.00
2018-04-17T17:17:47.998Z,9.00
2018-04-17T17:20:16.031Z,8.20
2018-04-17T17:22:44.010Z,7.53
2018-04-17T17:25:12.149Z,7.70
2018-04-17T17:27:40.520Z,9.37
2018-04-17T17:30:08.935Z,12.67
2018-04-17T17:32:37.318Z,15.60
2018-04-17T17:35:06.247Z,18.90
2018-04-17T17:37:34.740Z,14.10
2018-04-17T17:40:03.473Z,13.43
2018-04-17T17:42:31.717Z,11.20
2018-04-17T17:45:00.155Z,10.70
2018-04-17T17:47:28.611Z,18.40
2018-04-17T17:49:57.161Z,17.07
2018-04-17T17:52:25.574Z,22.73
2018-04-17T17:54:54.209Z,22.47
2018-04-17T17:57:22.697Z,19.13
2018-04-17T17:59:51.137Z,19.40
2018-04-17T18:02:19.811Z,20.77
2018-04-17T18:04:48.244Z,16.00
2018-04-17T18:07:16.724Z,19.40
2018-04-17T18:09:45.138Z,18.47
2018-04-17T18:12:13.739Z,13.33
2018-04-17T18:14:42.116Z,10.37
2018-04-17T18:17:10.577Z,10.60
2018-04-17T18:19:39.110Z,10.80
2018-04-17T18:22:07.438Z,10.23
2018-04-17T18:24:35.859Z,18.10
2018-04-17T18:27:04.396Z,16.23
2018-04-17T18:29:32.970Z,14.53
2018-04-17T18:32:01.630Z,11.87
2018-04-17T18:34:30.059Z,11.07
2018-04-17T18:36:58.230Z,9.27
2018-04-17T18:39:26.705Z,11.17
2018-04-17T18:41:55.282Z,9.97
2018-04-17T18:44:24.029Z,8.80
2018-04-17T18:46:52.288Z,8.10
2018-04-17T18:49:21.030Z,7.20
2018-04-17T18:51:49.700Z,9.17
2018-04-17T18:54:17.852Z,6.73
2018-04-17T18:56:46.266Z,7.77
2018-04-17T18:59:14.682Z,10.87
2018-04-17T19:01:43.340Z,13.20
2018-04-17T19:04:12.129Z,11.90
2018-04-17T19:06:40.291Z,10.57
2018-04-17T19:09:08.308Z,9.83
2018-04-17T19:11:36.395Z,10.23
2018-04-17T19:14:04.886Z,16.17
2018-04-17T19:16:33.182Z,19.97
2018-04-17T19:19:01.497Z,19.10
2018-04-17T19:21:29.951Z,19.80
2018-04-17T19:23:58.267Z,22.37
2018-04-17T19:26:26.354Z,15.23
2018-04-17T19:28:54.718Z,15.33
2018-04-17T19:31:22.798Z,14.63
2018-04-17T19:33:50.816Z,13.80
2018-04-17T19:36:18.851Z,14.63
2018-04-17T19:38:47.274Z,13.43
2018-04-17T19:41:15.317Z,13.53
2018-04-17T19:43:43.337Z,12.40
2018-04-17T19:46:11.330Z,12.30
2018-04-17T19:48:39.330Z,13.60
2018-04-17T19:51:07.409Z,12.50
2018-04-17T19:53:35.436Z,9.93
2018-04-17T19:56:03.496Z,10.57
2018-04-17T19:58:31.516Z,9.47
2018-04-17T20:00:59.483Z,12.30
2018-04-17T20:03:27.499Z,13.87
2018-04-17T20:05:55.502Z,12.83
2018-04-17T20:08:23.546Z,12.23
2018-04-17T20:10:51.543Z,13.47
2018-04-17T20:13:19.539Z,12.53
2018-04-17T20:15:47.818Z,12.20
2018-04-17T20:18:15.832Z,13.27
2018-04-17T20:20:43.868Z,10.93
2018-04-17T20:23:11.912Z,12.43
2018-04-17T20:25:39.905Z,13.60
2018-04-17T20:28:07.870Z,12.60
2018-04-17T20:30:35.941Z,12.33
2018-04-17T20:33:03.947Z,11.40
2018-04-17T20:35:32.491Z,9.30
2018-04-17T20:38:01.060Z,11.57
2018-04-17T20:40:29.457Z,10.60
2018-04-17T20:42:58.004Z,9.10
2018-04-17T20:45:26.801Z,9.53
2018-04-17T20:47:55.439Z,9.37
2018-04-17T20:50:23.677Z,10.03
2018-04-17T20:52:52.106Z,11.67
2018-04-17T20:55:20.689Z,10.83
2018-04-17T20:57:48.893Z,11.00
2018-04-17T21:00:17.216Z,10.33
2018-04-17T21:02:45.874Z,10.37
2018-04-17T21:05:14.536Z,7.97
2018-04-17T21:07:42.765Z,10.60
2018-04-17T21:10:11.097Z,8.37
2018-04-17T21:12:39.538Z,8.97
2018-04-17T21:15:07.965Z,9.03
2018-04-17T21:17:36.632Z,8.13
2018-04-17T21:20:05.118Z,8.30
2018-04-17T21:22:33.403Z,8.87
2018-04-17T21:25:01.780Z,11.20
2018-04-17T21:27:29.903Z,8.30
2018-04-17T21:29:58.724Z,7.17
2018-04-17T21:32:27.110Z,6.80
2018-04-17T21:34:55.608Z,9.10
2018-04-17T21:37:23.960Z,8.93
2018-04-17T21:39:52.339Z,6.77
2018-04-17T21:42:20.838Z,7.43
2018-04-17T21:44:49.410Z,6.40
2018-04-17T21:47:17.855Z,7.83
2018-04-17T21:49:45.946Z,6.97
2018-04-17T21:52:14.176Z,7.20
2018-04-17T21:54:43.362Z,8.77
2018-04-17T21:57:11.744Z,7.97
2018-04-17T21:59:40.090Z,5.73
2018-04-17T22:02:08.487Z,8.03
2018-04-17T22:04:37.056Z,6.83
2018-04-17T22:07:05.437Z,6.60
2018-04-17T22:09:33.930Z,6.80
2018-04-17T22:12:02.482Z,6.53
2018-04-17T22:14:31.158Z,6.20
2018-04-17T22:16:59.660Z,8.40
2018-04-17T22:19:28.458Z,6.83
2018-04-17T22:21:56.918Z,6.20
2018-04-17T22:24:25.189Z,6.53
2018-04-17T22:26:53.623Z,7.83
2018-04-17T22:29:22.153Z,6.97
2018-04-17T22:31:50.541Z,6.00
2018-04-17T22:34:19.760Z,5.63
2018-04-17T22:36:48.756Z,5.60
2018-04-17T22:39:17.655Z,5.67
2018-04-17T22:41:46.394Z,5.53
2018-04-17T22:44:16.587Z,5.50
2018-04-17T22:46:45.942Z,5.50
2018-04-17T22:49:14.201Z,5.67
2018-04-17T22:51:42.792Z,6.40
2018-04-17T22:54:11.115Z,5.67
2018-04-17T22:56:39.738Z,6.90
2018-04-17T22:59:08.085Z,6.13
2018-04-17T23:01:36.208Z,5.90
2018-04-17T23:04:04.868Z,6.43
2018-04-17T23:06:33.115Z,6.27
2018-04-17T23:09:01.637Z,5.47
2018-04-17T23:11:30.006Z,6.00
2018-04-17T23:13:58.525Z,8.23
2018-04-17T23:16:26.960Z,7.10
2018-04-17T23:18:55.417Z,9.07
2018-04-17T23:21:24.056Z,6.57
2018-04-17T23:23:52.505Z,6.87
2018-04-17T23:26:20.652Z,6.17
2018-04-17T23:28:49.386Z,5.40
2018-04-17T23:31:18.148Z,6.07
2018-04-17T23:33:46.505Z,5.60
2018-04-17T23:36:14.929Z,5.27
2018-04-17T23:38:43.492Z,4.50
2018-04-17T23:41:12.148Z,4.80
2018-04-17T23:43:40.567Z,5.17
2018-04-17T23:46:09.032Z,5.77
2018-04-17T23:48:37.333Z,5.63
2018-04-17T23:51:05.898Z,5.47
2018-04-17T23:53:34.349Z,6.00
2018-04-17T23:56:02.875Z,4.57
2018-04-17T23:58:31.242Z,6.07
